Time;durP1;ratioP1;P1;durP2;ratioP2;P2;SDS_P1;SDS_P2;PMS_P1;PMS_P2;Temp;Humidity;BMP_temperature;BMP_pressure;BME280_temperature;BME280_humidity;BME280_pressure;Samples;Min_cycle;Max_cycle;Signal;HPM_P1;HPM_P2
2020/12/14 00:01:54;;;;;;;7.53;3.28;;;5.40;99.80;;;;;;5014285;28;20128;-79
2020/12/14 00:04:20;;;;;;;10.68;4.00;;;5.40;99.90;;;;;;5020666;28;20034;-80
2020/12/14 00:06:50;;;;;;;6.70;3.50;;;5.40;99.90;;;;;;5015540;28;20089;-80
2020/12/14 00:09:16;;;;;;;8.77;3.65;;;5.40;99.90;;;;;;5014622;28;20049;-80
2020/12/14 00:11:43;;;;;;;9.77;3.65;;;5.40;99.90;;;;;;5020205;28;20037;-80
2020/12/14 00:14:08;;;;;;;10.45;3.95;;;5.50;99.90;;;;;;5021639;28;20387;-79
2020/12/14 00:16:34;;;;;;;6.90;3.13;;;5.50;99.50;;;;;;5015992;28;20033;-81
2020/12/14 00:19:00;;;;;;;9.98;4.40;;;5.50;99.60;;;;;;5019439;28;20037;-80
2020/12/14 00:21:26;;;;;;;11.38;4.47;;;5.50;99.70;;;;;;5013142;28;20041;-80
2020/12/14 00:23:51;;;;;;;10.50;4.45;;;5.60;99.90;;;;;;5014971;28;20037;-79
2020/12/14 00:26:20;;;;;;;8.75;4.18;;;5.60;99.70;;;;;;5018746;28;20561;-80
2020/12/14 00:28:51;;;;;;;7.57;3.45;;;5.70;99.70;;;;;;5020302;28;20034;-81
2020/12/14 00:31:17;;;;;;;7.40;3.22;;;5.70;99.40;;;;;;5020980;28;20026;-79
2020/12/14 00:33:47;;;;;;;8.32;4.28;;;5.70;99.00;;;;;;5019644;28;20049;-80
2020/12/14 00:36:13;;;;;;;9.68;3.75;;;5.80;99.10;;;;;;5017455;28;20104;-79
2020/12/14 00:38:39;;;;;;;10.10;3.50;;;5.80;98.90;;;;;;5017718;28;20122;-80
2020/12/14 00:41:09;;;;;;;8.02;3.25;;;5.80;98.60;;;;;;5019266;28;20396;-79
2020/12/14 00:43:34;;;;;;;16.83;5.25;;;8.10;98.90;;;;;;5019245;28;20506;-79
2020/12/14 00:46:00;;;;;;;10.05;3.63;;;5.80;98.30;;;;;;5019950;28;20033;-79
2020/12/14 00:48:25;;;;;;;9.98;3.90;;;5.90;98.40;;;;;;5021333;28;20530;-79
2020/12/14 00:50:51;;;;;;;7.22;3.50;;;5.90;98.50;;;;;;5013245;28;20560;-80
2020/12/14 00:53:18;;;;;;;8.13;3.40;;;5.90;98.00;;;;;;5021891;28;20112;-81
2020/12/14 00:55:43;;;;;;;8.63;3.40;;;5.90;98.00;;;;;;5013982;28;20566;-80
2020/12/14 00:58:09;;;;;;;6.65;3.10;;;6.70;98.30;;;;;;5021030;28;20084;-80
2020/12/14 01:00:35;;;;;;;8.27;3.80;;;6.00;97.70;;;;;;5034168;28;21455;-81
2020/12/14 01:03:02;;;;;;;8.25;3.72;;;;;;;;;;5006001;28;20037;-77
2020/12/14 01:05:28;;;;;;;8.70;3.83;;;6.00;97.60;;;;;;5020585;28;20041;-79
2020/12/14 01:07:54;;;;;;;7.20;3.60;;;6.00;97.90;;;;;;5026831;28;20136;-80
2020/12/14 01:10:23;;;;;;;6.88;3.60;;;6.00;97.90;;;;;;5019154;28;20080;-79
2020/12/14 01:12:48;;;;;;;10.02;3.55;;;6.00;97.40;;;;;;5040801;28;20022;-80
2020/12/14 01:15:14;;;;;;;8.55;3.60;;;6.10;96.70;;;;;;5019369;28;20034;-80
2020/12/14 01:17:41;;;;;;;9.65;3.55;;;6.20;96.50;;;;;;5023555;28;20061;-79
2020/12/14 01:20:07;;;;;;;9.77;3.47;;;;;;;;;;5008677;28;20507;-80
2020/12/14 01:22:33;;;;;;;7.72;3.95;;;;;;;;;;5020667;28;20044;-80
2020/12/14 01:25:00;;;;;;;10.13;4.30;;;;;;;;;;5021654;28;20557;-80
2020/12/14 01:27:25;;;;;;;8.15;3.25;;;6.10;96.70;;;;;;5015786;28;20053;-81
2020/12/14 01:29:51;;;;;;;7.18;3.45;;;6.00;96.70;;;;;;5020424;28;20037;-79
2020/12/14 01:32:17;;;;;;;7.43;2.90;;;6.70;97.10;;;;;;5015708;28;20045;-84
2020/12/14 01:34:43;;;;;;;6.43;3.33;;;6.00;97.30;;;;;;5011482;28;20033;-78
2020/12/14 01:37:09;;;;;;;6.22;3.20;;;6.10;97.00;;;;;;5010952;28;20068;-82
2020/12/14 01:39:36;;;;;;;7.32;3.40;;;;;;;;;;5021730;28;20033;-78
2020/12/14 01:42:01;;;;;;;7.13;3.55;;;6.00;97.00;;;;;;5014637;28;20095;-79
2020/12/14 01:44:27;;;;;;;7.55;3.63;;;6.00;97.50;;;;;;5015980;28;20049;-78
2020/12/14 01:46:53;;;;;;;7.97;3.47;;;8.20;97.80;;;;;;5019435;28;20053;-81
2020/12/14 01:49:19;;;;;;;8.73;3.38;;;6.00;97.30;;;;;;5017489;28;20095;-81
2020/12/14 01:51:45;;;;;;;7.78;3.85;;;6.00;97.20;;;;;;5020960;28;20617;-80
2020/12/14 01:54:44;;;;;;;8.50;3.70;;;6.10;97.20;;;;;;5019225;28;20026;-78
2020/12/14 01:57:09;;;;;;;6.90;2.97;;;8.30;97.90;;;;;;5008523;28;20100;-82
2020/12/14 01:59:35;;;;;;;6.80;3.13;;;6.00;97.50;;;;;;5008134;28;20487;-80
2020/12/14 02:02:02;;;;;;;6.18;3.15;;;6.00;97.40;;;;;;5011925;28;20045;-81
2020/12/14 02:04:29;;;;;;;10.88;3.50;;;6.10;97.30;;;;;;5008758;28;20188;-83
2020/12/14 02:06:59;;;;;;;7.15;3.42;;;6.10;97.40;;;;;;5000654;28;20041;-83
2020/12/14 02:09:24;;;;;;;7.75;2.90;;;6.20;97.20;;;;;;5039173;28;20555;-80
2020/12/14 02:11:50;;;;;;;7.55;3.28;;;6.20;97.00;;;;;;5019561;28;20119;-82
2020/12/14 02:14:16;;;;;;;6.78;2.90;;;6.20;96.90;;;;;;5011554;28;20133;-80
2020/12/14 02:16:42;;;;;;;8.05;3.17;;;6.20;96.40;;;;;;5016800;28;20435;-80
2020/12/14 02:19:07;;;;;;;7.43;3.28;;;6.30;96.30;;;;;;5012067;28;20045;-80
2020/12/14 02:21:33;;;;;;;6.13;2.90;;;6.30;96.40;;;;;;5011088;28;20045;-78
2020/12/14 02:23:58;;;;;;;6.10;2.83;;;6.30;96.10;;;;;;5025904;28;20041;-78
2020/12/14 02:26:24;;;;;;;5.43;2.35;;;6.30;96.20;;;;;;5013992;28;20507;-80
2020/12/14 02:28:50;;;;;;;4.13;2.35;;;6.30;96.00;;;;;;5010147;28;20398;-79
2020/12/14 02:31:15;;;;;;;6.50;2.63;;;6.40;96.00;;;;;;5016476;28;20395;-78
2020/12/14 02:33:41;;;;;;;7.30;2.75;;;6.40;96.00;;;;;;5026082;28;20120;-80
2020/12/14 02:36:07;;;;;;;6.82;2.47;;;6.40;95.70;;;;;;5012742;28;20053;-81
2020/12/14 02:38:33;;;;;;;6.05;2.40;;;6.50;96.10;;;;;;5007198;28;20037;-79
2020/12/14 02:40:58;;;;;;;4.70;2.55;;;6.40;95.90;;;;;;5017668;28;20092;-78
2020/12/14 02:43:24;;;;;;;5.93;2.20;;;6.50;95.70;;;;;;5018293;28;20053;-79
2020/12/14 02:45:50;;;;;;;5.30;2.33;;;6.50;96.00;;;;;;5019198;28;20045;-78
2020/12/14 02:48:15;;;;;;;5.70;2.50;;;6.50;95.40;;;;;;5017369;28;20487;-81
2020/12/14 02:50:41;;;;;;;5.88;2.40;;;9.30;96.00;;;;;;5017295;28;20041;-79
2020/12/14 02:53:07;;;;;;;5.90;2.55;;;6.50;95.40;;;;;;5016583;28;20507;-79
2020/12/14 02:55:32;;;;;;;6.20;2.10;;;6.60;95.60;;;;;;5018883;28;20037;-78
2020/12/14 02:57:58;;;;;;;6.30;2.25;;;6.60;95.80;;;;;;5015363;28;20129;-79
2020/12/14 03:00:24;;;;;;;3.95;2.58;;;6.60;95.80;;;;;;5018822;28;20157;-78
2020/12/14 03:02:49;;;;;;;8.32;2.50;;;6.60;95.80;;;;;;5020263;28;20411;-77
2020/12/14 03:05:15;;;;;;;6.78;2.40;;;6.60;95.60;;;;;;5018556;28;20057;-77
2020/12/14 03:07:41;;;;;;;6.50;2.60;;;6.60;95.60;;;;;;5017513;28;20049;-79
2020/12/14 03:10:06;;;;;;;5.07;2.53;;;6.60;95.80;;;;;;5015552;28;20040;-79
2020/12/14 03:12:35;;;;;;;5.25;2.45;;;6.60;96.00;;;;;;5017003;28;20057;-78
2020/12/14 03:15:00;;;;;;;5.30;2.30;;;6.60;95.70;;;;;;5012117;28;20045;-78
2020/12/14 03:17:27;;;;;;;5.65;2.20;;;6.60;95.60;;;;;;5015695;28;20049;-78
2020/12/14 03:19:53;;;;;;;6.60;2.97;;;6.50;95.80;;;;;;5012904;28;20052;-78
2020/12/14 03:22:18;;;;;;;6.63;2.42;;;6.50;95.80;;;;;;5026363;28;20042;-78
2020/12/14 03:24:44;;;;;;;6.75;2.28;;;6.50;95.90;;;;;;5014979;28;20057;-79
2020/12/14 03:27:10;;;;;;;4.28;2.30;;;6.50;96.00;;;;;;5015202;28;20060;-81
2020/12/14 03:29:36;;;;;;;4.53;2.28;;;6.50;96.00;;;;;;5017415;28;20132;-80
2020/12/14 03:32:02;;;;;;;5.75;1.90;;;6.40;96.10;;;;;;5017178;28;20490;-79
2020/12/14 03:34:29;;;;;;;4.45;2.10;;;6.40;96.00;;;;;;5013836;28;20069;-80
2020/12/14 03:36:57;;;;;;;2.90;1.80;;;6.40;96.10;;;;;;5023226;28;20092;-80
2020/12/14 03:39:23;;;;;;;6.78;2.42;;;6.50;96.00;;;;;;5014949;28;20069;-81
2020/12/14 03:41:52;;;;;;;4.13;1.98;;;6.50;96.10;;;;;;5012679;28;20076;-79
2020/12/14 03:44:18;;;;;;;3.90;1.80;;;8.50;96.80;;;;;;5013541;28;20227;-79
2020/12/14 03:46:43;;;;;;;3.67;1.77;;;7.80;96.50;;;;;;5011842;28;20136;-81
2020/12/14 03:49:09;;;;;;;5.05;2.10;;;6.50;96.20;;;;;;5040203;28;20535;-80
2020/12/14 03:51:35;;;;;;;5.28;1.95;;;6.50;96.00;;;;;;5015500;28;20045;-78
2020/12/14 03:54:09;;;;;;;3.85;1.70;;;6.50;95.90;;;;;;5008825;28;20058;-80
2020/12/14 03:56:35;;;;;;;4.03;1.90;;;6.50;96.20;;;;;;5022201;28;20050;-82
2020/12/14 03:59:01;;;;;;;4.55;2.33;;;6.50;96.10;;;;;;5027952;28;20030;-80
2020/12/14 04:01:29;;;;;;;3.40;1.63;;;6.50;96.00;;;;;;5023938;28;20046;-81
2020/12/14 04:03:54;;;;;;;4.55;1.60;;;7.50;96.40;;;;;;5009987;28;20061;-80
2020/12/14 04:06:25;;;;;;;5.25;2.00;;;6.50;96.10;;;;;;5023277;28;20559;-81
2020/12/14 04:08:52;;;;;;;4.45;1.88;;;6.50;96.10;;;;;;5023225;28;20623;-82
2020/12/14 04:11:18;;;;;;;5.60;1.80;;;7.50;96.50;;;;;;5024020;28;20135;-79
2020/12/14 04:13:48;;;;;;;3.75;1.50;;;7.50;96.20;;;;;;5019140;28;20487;-80
2020/12/14 04:16:14;;;;;;;8.13;3.72;;;8.30;96.40;;;;;;5015354;28;20046;-82
2020/12/14 04:18:41;;;;;;;4.20;1.80;;;6.70;96.10;;;;;;5020118;28;20033;-80
2020/12/14 04:21:08;;;;;;;4.28;1.92;;;6.70;96.00;;;;;;5014762;28;20434;-79
2020/12/14 04:23:35;;;;;;;3.38;1.80;;;6.70;96.50;;;;;;5033476;28;20055;-79
2020/12/14 04:26:00;;;;;;;3.70;1.50;;;9.30;96.40;;;;;;5049803;28;20037;-80
2020/12/14 04:28:26;;;;;;;3.22;1.50;;;6.70;95.70;;;;;;5021229;28;20042;-80
2020/12/14 04:30:51;;;;;;;5.88;1.95;;;6.70;95.70;;;;;;5028262;28;20060;-80
2020/12/14 04:33:18;;;;;;;8.77;2.40;;;6.70;95.70;;;;;;5027258;28;20386;-79
2020/12/14 04:35:43;;;;;;;4.97;2.25;;;6.70;95.70;;;;;;5026565;28;20033;-78
2020/12/14 04:38:09;;;;;;;4.00;1.70;;;6.70;95.70;;;;;;5028695;28;22127;-79
2020/12/14 04:40:35;;;;;;;3.58;1.70;;;6.70;95.70;;;;;;5023386;28;20042;-78
2020/12/14 04:43:01;;;;;;;3.72;1.60;;;6.70;95.70;;;;;;5023817;28;20050;-79
2020/12/14 04:45:28;;;;;;;5.00;1.83;;;6.70;95.80;;;;;;5021234;28;20041;-79
2020/12/14 04:47:55;;;;;;;3.80;1.58;;;6.60;96.00;;;;;;5026453;28;20044;-78
2020/12/14 04:50:23;;;;;;;4.63;1.63;;;6.60;96.00;;;;;;5023267;28;20033;-78
2020/12/14 04:52:50;;;;;;;4.57;1.70;;;6.60;95.70;;;;;;5021986;28;20075;-79
2020/12/14 04:55:23;;;;;;;7.15;2.05;;;6.70;95.60;;;;;;5022480;28;20038;-78
2020/12/14 04:57:52;;;;;;;3.25;1.45;;;6.70;95.40;;;;;;5024442;28;20052;-78
2020/12/14 05:00:19;;;;;;;4.80;1.85;;;6.70;95.30;;;;;;5017806;28;20109;-78
2020/12/14 05:02:53;;;;;;;2.95;1.60;;;6.80;95.50;;;;;;5024042;28;20495;-79
2020/12/14 05:05:18;;;;;;;8.20;2.00;;;6.80;95.20;;;;;;5019469;28;20029;-78
2020/12/14 05:07:44;;;;;;;2.47;1.33;;;6.80;95.10;;;;;;5028007;28;20029;-81
2020/12/14 05:10:11;;;;;;;5.78;1.88;;;6.80;95.00;;;;;;5025004;28;20041;-79
2020/12/14 05:12:42;;;;;;;4.18;1.88;;;6.80;95.00;;;;;;5022502;28;20033;-78
2020/12/14 05:15:21;;;;;;;3.72;1.75;;;6.80;95.10;;;;;;5025511;28;20038;-80
2020/12/14 05:17:48;;;;;;;4.05;1.70;;;6.80;94.70;;;;;;5025664;28;20502;-79
2020/12/14 05:20:16;;;;;;;3.67;1.80;;;6.80;94.90;;;;;;5034007;28;20029;-79
2020/12/14 05:22:59;;;;;;;3.90;1.83;;;6.80;95.10;;;;;;5022798;28;20423;-78
2020/12/14 05:25:26;;;;;;;4.93;1.90;;;6.80;95.10;;;;;;5016657;28;20059;-79
2020/12/14 05:28:16;;;;;;;3.95;2.17;;;6.90;95.20;;;;;;5023910;28;20068;-79
2020/12/14 05:30:50;;;;;;;7.40;2.58;;;6.90;94.90;;;;;;5026086;28;20566;-78
2020/12/14 05:33:19;;;;;;;10.75;3.10;;;6.90;94.70;;;;;;5026027;28;20187;-78
2020/12/14 05:35:46;;;;;;;10.48;3.20;;;6.90;94.60;;;;;;5021702;28;20067;-78
2020/12/14 05:38:31;;;;;;;10.23;3.33;;;8.60;95.20;;;;;;5015924;28;20022;-77
2020/12/14 05:41:00;;;;;;;12.43;3.40;;;7.00;94.90;;;;;;5026101;28;20517;-79
2020/12/14 05:43:27;;;;;;;8.55;3.08;;;7.00;94.90;;;;;;5018014;28;20030;-78
2020/12/14 05:45:54;;;;;;;9.18;2.97;;;;;;;;;;5018359;28;20041;-77
2020/12/14 05:48:30;;;;;;;8.80;2.65;;;7.00;94.50;;;;;;5018914;28;20049;-79
2020/12/14 05:51:01;;;;;;;7.20;2.80;;;7.00;94.60;;;;;;5018311;28;20049;-78
2020/12/14 05:53:57;;;;;;;7.43;3.03;;;7.00;94.70;;;;;;5025415;28;20112;-79
2020/12/14 05:56:25;;;;;;;7.28;2.70;;;7.00;94.70;;;;;;5021636;28;20049;-81
2020/12/14 05:58:54;;;;;;;8.30;2.63;;;6.90;94.70;;;;;;5020117;28;20052;-78
2020/12/14 06:01:21;;;;;;;9.00;2.55;;;6.90;94.90;;;;;;5021168;28;20092;-79
2020/12/14 06:03:48;;;;;;;6.93;2.55;;;;;;;;;;5025870;28;20673;-79
2020/12/14 06:06:16;;;;;;;5.47;2.35;;;6.90;94.40;;;;;;5027428;28;20511;-78
2020/12/14 06:08:45;;;;;;;6.43;2.45;;;6.90;94.50;;;;;;5024897;28;20133;-79
2020/12/14 06:11:15;;;;;;;5.10;2.28;;;6.80;94.40;;;;;;5022120;28;20046;-77
2020/12/14 06:13:52;;;;;;;3.63;2.03;;;6.70;94.60;;;;;;5023159;28;20040;-79
2020/12/14 06:16:20;;;;;;;7.20;2.97;;;6.80;94.60;;;;;;5022891;28;20407;-80
2020/12/14 06:18:47;;;;;;;5.43;2.40;;;6.80;94.70;;;;;;5021435;28;20068;-79
2020/12/14 06:21:20;;;;;;;5.88;2.45;;;6.80;94.80;;;;;;5020969;28;20037;-78
2020/12/14 06:23:48;;;;;;;8.30;3.78;;;6.70;95.00;;;;;;5024830;28;20034;-79
2020/12/14 06:26:22;;;;;;;6.00;2.90;;;6.70;95.00;;;;;;5031932;28;20137;-79
2020/12/14 06:28:54;;;;;;;6.95;2.72;;;6.60;95.10;;;;;;5018866;28;20073;-81
2020/12/14 06:31:39;;;;;;;6.65;2.85;;;6.70;95.30;;;;;;5027915;28;20558;-80
2020/12/14 06:34:31;;;;;;;7.70;2.85;;;5.80;94.80;;;;;;5012101;28;20120;-79
2020/12/14 06:37:00;;;;;;;5.45;2.83;;;6.60;94.90;;;;;;5018734;28;20042;-81
2020/12/14 06:39:41;;;;;;;6.75;2.88;;;6.60;95.10;;;;;;5022476;28;20120;-78
2020/12/14 06:42:14;;;;;;;8.52;3.00;;;6.50;94.90;;;;;;5021670;28;20061;-81
2020/12/14 06:44:43;;;;;;;8.98;3.03;;;6.50;95.10;;;;;;5023038;28;20045;-78
2020/12/14 06:47:13;;;;;;;7.55;2.90;;;6.40;95.10;;;;;;5024351;28;20030;-80
2020/12/14 06:49:39;;;;;;;7.05;3.10;;;6.50;95.30;;;;;;5022032;28;20411;-80
2020/12/14 06:52:05;;;;;;;10.93;3.63;;;;;;;;;;5026821;28;20037;-78
2020/12/14 06:54:45;;;;;;;14.77;4.10;;;6.40;95.40;;;;;;5025336;28;20293;-79
2020/12/14 06:57:19;;;;;;;18.33;4.90;;;6.40;95.40;;;;;;5021872;28;20112;-78
2020/12/14 06:59:54;;;;;;;12.40;4.53;;;6.40;95.60;;;;;;5019802;28;20038;-79
2020/12/14 07:02:44;;;;;;;11.93;4.15;;;6.50;95.30;;;;;;5016464;28;20043;-79
2020/12/14 07:05:32;;;;;;;14.45;4.15;;;6.50;95.40;;;;;;5004098;28;20046;-80
2020/12/14 07:08:00;;;;;;;7.35;3.55;;;6.50;95.10;;;;;;5009980;28;20057;-79
2020/12/14 07:10:28;;;;;;;9.98;3.55;;;6.50;95.20;;;;;;5015553;28;20030;-78
2020/12/14 07:12:54;;;;;;;9.65;3.50;;;6.40;95.30;;;;;;5013591;28;20037;-78
2020/12/14 07:15:31;;;;;;;7.35;2.95;;;6.50;94.90;;;;;;5013378;28;20571;-77
2020/12/14 07:18:08;;;;;;;8.30;3.50;;;6.50;95.10;;;;;;5019862;28;20099;-81
2020/12/14 07:20:35;;;;;;;7.25;3.10;;;6.50;94.60;;;;;;5022174;28;20022;-78
2020/12/14 07:23:06;;;;;;;5.72;3.28;;;6.50;94.50;;;;;;5023867;28;20414;-79
2020/12/14 07:25:33;;;;;;;9.85;4.07;;;6.60;94.50;;;;;;5023845;28;20034;-78
2020/12/14 07:27:59;;;;;;;8.70;3.58;;;6.60;94.60;;;;;;5016434;28;20022;-78
2020/12/14 07:30:25;;;;;;;11.25;3.53;;;6.60;94.60;;;;;;5019789;28;20404;-80
2020/12/14 07:32:51;;;;;;;8.02;3.35;;;6.60;94.80;;;;;;5019502;28;20038;-80
2020/12/14 07:35:16;;;;;;;9.25;3.42;;;6.80;94.90;;;;;;5020320;28;20066;-80
2020/12/14 07:37:42;;;;;;;10.85;3.25;;;6.70;94.60;;;;;;5014644;28;20568;-79
2020/12/14 07:40:10;;;;;;;9.95;3.35;;;6.80;94.50;;;;;;5022119;28;20026;-83
2020/12/14 07:42:37;;;;;;;9.60;3.70;;;6.80;94.40;;;;;;5023341;28;20126;-79
2020/12/14 07:45:13;;;;;;;7.55;3.50;;;6.80;94.30;;;;;;5017747;28;20042;-80
2020/12/14 07:47:40;;;;;;;6.43;3.17;;;6.80;94.20;;;;;;5029376;28;20056;-81
2020/12/14 07:50:08;;;;;;;6.25;3.40;;;7.40;94.30;;;;;;5018733;28;20055;-80
2020/12/14 07:52:34;;;;;;;7.15;3.35;;;6.80;93.70;;;;;;5010822;28;20034;-81
2020/12/14 07:55:00;;;;;;;8.98;3.10;;;6.80;93.60;;;;;;5027658;28;20168;-80
2020/12/14 07:57:36;;;;;;;10.05;4.10;;;6.80;94.00;;;;;;5022708;28;20053;-80
2020/12/14 08:00:07;;;;;;;7.53;3.45;;;6.80;93.90;;;;;;5021779;28;20038;-80
2020/12/14 08:02:33;;;;;;;9.43;3.47;;;6.80;94.30;;;;;;5021279;28;20041;-80
2020/12/14 08:05:01;;;;;;;7.15;3.13;;;6.80;94.10;;;;;;5024076;28;20041;-80
2020/12/14 08:07:45;;;;;;;9.70;3.30;;;6.80;94.10;;;;;;5026562;28;20045;-80
2020/12/14 08:10:12;;;;;;;6.63;3.33;;;6.80;93.90;;;;;;5026097;28;20060;-79
2020/12/14 08:12:43;;;;;;;8.10;3.22;;;6.80;93.80;;;;;;5028046;28;20042;-79
2020/12/14 08:15:14;;;;;;;6.28;3.30;;;7.70;93.90;;;;;;5024978;28;20049;-80
2020/12/14 08:17:41;;;;;;;7.82;3.30;;;6.80;93.90;;;;;;5024048;28;20495;-80
2020/12/14 08:20:36;;;;;;;9.30;3.58;;;6.80;94.00;;;;;;5016209;28;20068;-80
2020/12/14 08:23:14;;;;;;;7.90;3.55;;;6.80;93.90;;;;;;5015410;28;20034;-81
2020/12/14 08:25:44;;;;;;;10.05;3.80;;;6.80;94.00;;;;;;5024249;28;20037;-79
2020/12/14 08:28:13;;;;;;;7.97;3.50;;;6.80;94.10;;;;;;5020137;28;20038;-79
2020/12/14 08:30:40;;;;;;;9.68;3.72;;;6.80;94.00;;;;;;5018424;28;20713;-80
2020/12/14 08:33:16;;;;;;;7.57;3.40;;;6.80;93.90;;;;;;5020111;28;20087;-80
2020/12/14 08:35:47;;;;;;;7.05;3.45;;;6.80;94.00;;;;;;5023724;28;20512;-82
2020/12/14 08:38:15;;;;;;;7.00;3.50;;;8.40;94.10;;;;;;5026422;28;20036;-80
2020/12/14 08:41:03;;;;;;;7.82;3.28;;;6.90;93.60;;;;;;5022718;28;20022;-82
2020/12/14 08:43:34;;;;;;;5.47;3.03;;;6.90;93.40;;;;;;5031102;28;20033;-82
2020/12/14 08:46:11;;;;;;;9.35;3.35;;;6.90;93.50;;;;;;5029052;28;20057;-82
2020/12/14 08:48:54;;;;;;;8.13;3.13;;;6.90;93.70;;;;;;5016938;28;20038;-83
2020/12/14 08:51:30;;;;;;;8.52;3.65;;;7.00;93.10;;;;;;5027376;28;20054;-82
2020/12/14 08:54:13;;;;;;;8.15;4.15;;;7.00;93.30;;;;;;5024723;28;20373;-80
2020/12/14 08:56:39;;;;;;;6.47;3.47;;;7.00;93.40;;;;;;5022341;28;20032;-81
2020/12/14 08:59:14;;;;;;;6.78;2.90;;;7.00;93.20;;;;;;5009332;28;20042;-80
2020/12/14 09:01:54;;;;;;;6.13;3.10;;;7.10;93.20;;;;;;5021423;28;20404;-80
2020/12/14 09:04:40;;;;;;;10.15;3.50;;;7.00;92.80;;;;;;5026827;28;20069;-81
2020/12/14 09:07:06;;;;;;;8.02;3.45;;;7.30;93.10;;;;;;5029044;28;20030;-80
2020/12/14 09:09:34;;;;;;;7.20;3.38;;;7.40;92.50;;;;;;5029284;28;20125;-81
2020/12/14 09:12:01;;;;;;;9.88;3.95;;;7.50;92.30;;;;;;5025392;28;20041;-81
2020/12/14 09:14:29;;;;;;;7.82;3.42;;;7.60;92.10;;;;;;5019892;28;20101;-81
2020/12/14 09:17:01;;;;;;;10.38;3.50;;;7.70;92.00;;;;;;5025949;28;20046;-80
2020/12/14 09:19:29;;;;;;;6.95;3.60;;;9.30;91.80;;;;;;5023194;28;20104;-81
2020/12/14 09:21:55;;;;;;;6.45;3.63;;;7.90;91.20;;;;;;5017302;28;20045;-81
2020/12/14 09:24:21;;;;;;;7.78;3.53;;;11.30;92.30;;;;;;5030485;28;20033;-80
2020/12/14 09:26:49;;;;;;;9.27;3.20;;;8.00;91.20;;;;;;5025441;28;20040;-79
2020/12/14 09:29:14;;;;;;;7.97;3.33;;;9.50;91.50;;;;;;5024735;28;20033;-80
2020/12/14 09:31:55;;;;;;;9.00;3.78;;;8.10;91.20;;;;;;5021062;28;20100;-82
2020/12/14 09:34:21;;;;;;;9.13;3.63;;;8.30;91.00;;;;;;5030319;28;20030;-81
2020/12/14 09:37:06;;;;;;;8.05;3.78;;;8.30;90.80;;;;;;5027653;28;20041;-81
2020/12/14 09:39:33;;;;;;;8.50;3.65;;;8.40;90.40;;;;;;5054326;28;20034;-81
2020/12/14 09:41:59;;;;;;;7.15;3.10;;;8.50;90.50;;;;;;5030874;28;20041;-81
2020/12/14 09:44:26;;;;;;;8.55;3.78;;;8.60;90.40;;;;;;5028015;28;20132;-80
2020/12/14 09:46:52;;;;;;;5.50;2.90;;;8.60;90.30;;;;;;5027534;28;20096;-79
2020/12/14 09:49:19;;;;;;;6.72;3.28;;;8.60;90.40;;;;;;5026191;28;20598;-80
2020/12/14 09:51:45;;;;;;;7.10;3.17;;;;;;;;;;5017243;28;20029;-80
2020/12/14 09:54:11;;;;;;;6.80;3.10;;;8.80;89.20;;;;;;5019417;28;20046;-79
2020/12/14 09:56:36;;;;;;;9.75;3.25;;;8.80;89.60;;;;;;5026760;28;20522;-78
2020/12/14 09:59:03;;;;;;;7.30;2.85;;;8.60;89.30;;;;;;5027076;28;20045;-78
2020/12/14 10:01:30;;;;;;;12.65;5.82;;;8.90;88.40;;;;;;5024013;28;20038;-79
2020/12/14 10:03:57;;;;;;;7.20;3.25;;;11.30;90.20;;;;;;5024772;28;20104;-81
2020/12/14 10:06:23;;;;;;;9.00;2.60;;;9.00;87.10;;;;;;5019758;28;20124;-78
2020/12/14 10:08:49;;;;;;;10.52;3.40;;;9.00;87.50;;;;;;5023612;28;20066;-80
2020/12/14 10:11:15;;;;;;;6.85;2.90;;;9.10;88.40;;;;;;5021619;28;20091;-80
2020/12/14 10:13:43;;;;;;;5.85;2.65;;;9.10;89.40;;;;;;5020787;28;20115;-80
2020/12/14 10:16:12;;;;;;;7.88;3.17;;;9.00;87.10;;;;;;5019237;28;20045;-78
2020/12/14 10:18:38;;;;;;;7.88;2.75;;;9.10;87.30;;;;;;5020218;28;20213;-79
2020/12/14 10:21:05;;;;;;;8.23;3.00;;;9.10;87.90;;;;;;5019432;28;20045;-78
2020/12/14 10:23:31;;;;;;;9.18;3.35;;;9.00;87.10;;;;;;5026125;28;20124;-81
2020/12/14 10:25:57;;;;;;;6.85;2.90;;;10.70;89.80;;;;;;5023647;28;20048;-79
2020/12/14 10:28:23;;;;;;;11.88;2.88;;;8.90;87.00;;;;;;5015041;28;20124;-80
2020/12/14 10:30:48;;;;;;;5.57;2.80;;;9.20;86.40;;;;;;5027765;28;20052;-80
2020/12/14 10:33:16;;;;;;;8.73;2.92;;;11.60;87.40;;;;;;5021112;28;20029;-81
2020/12/14 10:35:43;;;;;;;8.48;2.85;;;9.20;85.80;;;;;;5022546;28;20032;-78
2020/12/14 10:38:10;;;;;;;7.88;2.55;;;9.20;86.20;;;;;;5015110;28;20034;-79
2020/12/14 10:40:35;;;;;;;10.40;3.70;;;9.00;86.60;;;;;;5037773;28;20037;-79
2020/12/14 10:43:02;;;;;;;5.88;3.17;;;9.20;86.90;;;;;;5018542;28;20034;-78
2020/12/14 10:45:28;;;;;;;6.20;2.90;;;9.30;86.80;;;;;;5021508;28;20045;-81
2020/12/14 10:47:54;;;;;;;8.38;2.92;;;10.70;87.70;;;;;;5021067;28;20037;-79
2020/12/14 10:50:19;;;;;;;8.50;2.40;;;9.30;86.10;;;;;;5019729;28;20069;-79
2020/12/14 10:52:45;;;;;;;5.78;2.70;;;11.20;87.40;;;;;;5022532;28;20061;-79
2020/12/14 10:55:11;;;;;;;5.72;2.78;;;9.50;85.50;;;;;;5031451;28;20111;-80
2020/12/14 10:57:37;;;;;;;9.63;3.10;;;9.50;84.40;;;;;;5021983;28;20041;-79
2020/12/14 11:00:10;;;;;;;7.45;2.40;;;9.50;86.10;;;;;;5020609;28;20041;-78
2020/12/14 11:02:39;;;;;;;5.63;2.40;;;9.60;84.50;;;;;;5018946;28;20022;-82
2020/12/14 11:05:06;;;;;;;8.05;2.60;;;10.60;85.00;;;;;;5022732;28;20037;-81
2020/12/14 11:07:32;;;;;;;9.63;2.53;;;9.80;82.00;;;;;;5020729;28;20037;-81
2020/12/14 11:09:59;;;;;;;9.93;2.95;;;11.20;83.10;;;;;;5018933;28;20025;-80
2020/12/14 11:12:26;;;;;;;8.55;2.85;;;9.70;82.80;;;;;;5026007;28;20053;-81
2020/12/14 11:14:54;;;;;;;8.60;2.47;;;9.80;83.10;;;;;;5037215;28;20399;-80
2020/12/14 11:17:20;;;;;;;5.60;2.55;;;10.90;83.00;;;;;;5024581;28;20141;-81
2020/12/14 11:19:46;;;;;;;7.75;2.40;;;9.90;81.50;;;;;;5026643;28;20110;-82
2020/12/14 11:22:12;;;;;;;5.57;2.45;;;;;;;;;;5018170;28;20065;-78
2020/12/14 11:24:38;;;;;;;6.75;2.97;;;9.80;81.50;;;;;;5017751;28;20151;-81
2020/12/14 11:27:04;;;;;;;8.38;2.65;;;9.80;82.00;;;;;;5019776;28;20046;-81
2020/12/14 11:29:31;;;;;;;12.48;2.40;;;9.80;81.20;;;;;;5021784;28;20110;-79
2020/12/14 11:31:58;;;;;;;7.57;2.90;;;9.90;81.20;;;;;;5020536;28;20037;-80
2020/12/14 11:34:23;;;;;;;8.35;2.92;;;9.80;81.60;;;;;;5019408;28;20268;-80
2020/12/14 11:36:49;;;;;;;8.00;2.95;;;9.90;82.20;;;;;;5017759;28;20415;-79
2020/12/14 11:39:15;;;;;;;8.38;2.75;;;10.10;80.50;;;;;;5022201;28;20080;-79
2020/12/14 11:41:45;;;;;;;9.90;3.00;;;10.10;80.50;;;;;;5022661;28;20034;-80
2020/12/14 11:44:11;;;;;;;4.43;2.30;;;;;;;;;;5021946;28;20061;-81
2020/12/14 11:46:37;;;;;;;5.30;2.40;;;10.20;79.70;;;;;;5015698;28;20041;-81
2020/12/14 11:49:03;;;;;;;4.88;2.40;;;10.20;80.40;;;;;;5014055;28;20044;-79
2020/12/14 11:51:29;;;;;;;4.90;2.40;;;10.30;81.30;;;;;;5020980;28;20325;-78
2020/12/14 11:53:55;;;;;;;5.80;2.20;;;10.30;79.30;;;;;;5014586;28;20883;-80
2020/12/14 11:56:21;;;;;;;6.07;2.50;;;12.00;80.70;;;;;;5015399;28;20050;-80
2020/12/14 11:58:47;;;;;;;5.30;2.35;;;10.40;79.80;;;;;;5009864;28;20046;-80
2020/12/14 12:01:13;;;;;;;4.60;2.40;;;;;;;;;;5018943;28;20423;-79
2020/12/14 12:03:39;;;;;;;6.60;2.42;;;10.50;79.00;;;;;;5014127;28;20464;-79
2020/12/14 12:06:05;;;;;;;3.58;2.25;;;10.50;78.50;;;;;;5016488;28;20088;-82
2020/12/14 12:08:31;;;;;;;6.47;2.47;;;10.60;78.20;;;;;;5020411;28;20485;-81
2020/12/14 12:10:56;;;;;;;6.80;2.05;;;10.60;78.70;;;;;;5026533;28;20441;-79
2020/12/14 12:13:22;;;;;;;9.15;2.90;;;11.50;78.70;;;;;;5031462;28;20483;-81
2020/12/14 12:15:48;;;;;;;6.72;2.22;;;10.60;80.00;;;;;;5022805;28;20411;-79
2020/12/14 12:18:14;;;;;;;9.15;2.30;;;10.60;79.90;;;;;;5021935;28;20045;-80
2020/12/14 12:20:40;;;;;;;6.05;2.55;;;;;;;;;;5025335;28;20487;-82
2020/12/14 12:23:06;;;;;;;7.00;2.92;;;10.60;78.60;;;;;;5023369;28;20042;-80
2020/12/14 12:25:32;;;;;;;5.65;2.72;;;10.60;79.10;;;;;;5031340;28;20045;-80
2020/12/14 12:27:58;;;;;;;5.78;2.38;;;10.60;80.00;;;;;;5028627;28;20038;-80
2020/12/14 12:30:23;;;;;;;4.50;2.40;;;10.70;78.60;;;;;;4999188;28;20042;-81
2020/12/14 12:32:49;;;;;;;7.13;3.00;;;12.10;79.80;;;;;;5022637;28;20115;-79
2020/12/14 12:35:16;;;;;;;5.75;2.30;;;10.70;79.50;;;;;;5013217;28;20057;-79
2020/12/14 12:37:41;;;;;;;4.55;2.40;;;11.80;79.70;;;;;;5022033;28;20156;-79
2020/12/14 12:40:09;;;;;;;4.53;2.35;;;10.70;79.50;;;;;;5022348;28;20114;-81
2020/12/14 12:42:35;;;;;;;4.30;2.13;;;10.80;78.30;;;;;;5031766;28;20017;-79
2020/12/14 12:45:01;;;;;;;8.00;2.33;;;10.70;78.70;;;;;;5033531;28;20117;-77
2020/12/14 12:47:27;;;;;;;6.55;2.53;;;10.80;79.10;;;;;;5034738;28;20065;-78
2020/12/14 12:49:53;;;;;;;7.88;2.63;;;10.80;79.60;;;;;;5021260;28;20030;-77
2020/12/14 12:52:19;;;;;;;5.07;2.42;;;10.80;79.30;;;;;;5025700;28;20079;-81
2020/12/14 12:54:45;;;;;;;5.68;2.50;;;10.80;79.80;;;;;;5028025;28;20034;-82
2020/12/14 12:57:10;;;;;;;6.70;3.00;;;10.80;80.10;;;;;;5011365;28;20112;-78
2020/12/14 12:59:37;;;;;;;6.13;2.78;;;10.80;80.20;;;;;;5018678;28;20033;-79
2020/12/14 13:02:02;;;;;;;4.95;2.45;;;10.90;80.30;;;;;;5011672;28;20038;-79
2020/12/14 13:04:28;;;;;;;10.05;3.50;;;11.00;80.10;;;;;;5021372;28;20065;-83